• Join FlightAware (Why Join?)
  • Login
  • US Flag 
02:57PM EDT


 

Airport Tracker/Info


-or-


 

Live Flight TrackerFlight Track Log ✈ ASQ6185 ✈ 27-Oct-2013 ✈ KRDU - KIAH

Flight Track Log - Related Links

Times and Time Zones

All times are in EDT time to prevent confusion due to time zone crossing. See the ASQ6185 flight status page for this flight to view local times or setup timezone preferences in your user account.

Time Position Orientation Groundspeed Altitude Reporting Facility
EDT Latitude Longitude Course Direction KTS MPH feet Rate Location/Type
03:20PM 35.8583 -78.8083 227° Southwest 175 201 700  Level Washington Center
03:21PM 35.8194 -78.8606 227° Southwest 208 239 2,900 1,980 Climbing Washington Center
03:22PM 35.8214 -78.9350 272° West 261 300 4,800 2,220 Climbing Washington Center
03:24PM 35.8283 -79.0608 274° West 267 307 8,500 2,400 Climbing Washington Center
03:25PM 35.8297 -79.1531 271° West 258 297 11,100 2,100 Climbing Washington Center
03:26PM 35.8336 -79.2353 273° West 258 297 12,800 960 Climbing Washington Center
03:27PM 35.8875 -79.3147 310° West 258 297 13,100 960 Climbing Washington Center
03:28PM 35.9269 -79.3831 305° West 271 312 14,800 1,200 Climbing Washington Center
03:30PM 35.8692 -79.6442 255° West 308 354 17,300 1,080 Climbing Atlanta Center
03:31PM 35.8414 -79.7506 252° West 326 375 18,700 1,500 Climbing Atlanta Center
03:32PM 35.8103 -79.8750 253° West 338 389 20,300 1,500 Climbing Atlanta Center
03:33PM 35.7806 -79.9842 251° West 343 395 21,700 1,320 Climbing Atlanta Center
03:34PM 35.7511 -80.1008 253° West 353 406 23,000 1,260 Climbing Atlanta Center
03:35PM 35.7211 -80.2097 251° West 353 406 24,300 1,200 Climbing Atlanta Center
03:36PM 35.6953 -80.3183 254° West 353 406 25,400 1,140 Climbing Atlanta Center
03:37PM 35.6611 -80.4372 251° West 359 413 26,600 1,140 Climbing Atlanta Center
03:38PM 35.6311 -80.5511 252° West 359 413 27,700 660 Climbing Atlanta Center
03:39PM 35.5989 -80.6675 251° West 364 419 28,000 120 Climbing Atlanta Center
03:40PM 35.5647 -80.7939 252° West 380 437 28,000  Level Atlanta Center
03:41PM 35.5247 -80.9383 251° West 390 449 28,100 600 Climbing Atlanta Center
03:42PM 35.4861 -81.0647 249° West 406 467 29,300 1,020 Climbing Atlanta Center
03:43PM 35.4494 -81.1936 251° West 406 467 30,200 900 Climbing Atlanta Center
03:44PM 35.4147 -81.3197 251° West 401 461 31,200 900 Climbing Atlanta Center
03:45PM 35.3819 -81.4431 252° West 396 456 32,000 360 Climbing Atlanta Center
03:46PM 35.3489 -81.5586 251° West 396 456 32,000  Level Atlanta Center
03:47PM 35.3097 -81.6922 250° West 396 456 32,000  Level Atlanta Center
03:48PM 35.2728 -81.8281 252° West 419 482 32,000  Level Atlanta Center
03:49PM 35.2333 -81.9664 251° West 427 491 32,000  Level Atlanta Center
03:50PM 35.1939 -82.1022 250° West 427 491 32,000  Level Atlanta Center
03:51PM 35.1503 -82.2506 250° West 427 491 32,000  Level Atlanta Center
03:52PM 35.1144 -82.3681 250° West 413 475 32,000  Level Atlanta Center
03:53PM 35.0744 -82.5033 250° West 418 481 32,000  Level Atlanta Center
03:54PM 35.0342 -82.6333 249° West 418 481 32,000  Level Atlanta Center
03:55PM 34.9961 -82.7686 251° West 425 489 32,000  Level Atlanta Center
03:56PM 34.9556 -82.9008 250° West 420 483 32,000  Level Atlanta Center
03:57PM 34.9108 -83.0433 249° West 420 483 32,000  Level Atlanta Center
03:58PM 34.8742 -83.1603 249° West 420 483 32,000  Level Atlanta Center
03:59PM 34.8356 -83.2972 251° West 419 482 32,000  Level Atlanta Center
04:00PM 34.7944 -83.4292 249° West 419 482 32,000  Level Atlanta Center
04:01PM 34.7556 -83.5608 250° West 424 488 32,000  Level Atlanta Center
04:02PM 34.7119 -83.6925 248° West 424 488 32,000  Level Atlanta Center
04:03PM 34.6728 -83.8242 250° West 424 488 32,000  Level Atlanta Center
04:04PM 34.6333 -83.9581 250° West 430 495 32,000  Level Atlanta Center
04:05PM 34.5936 -84.0867 249° West 425 489 32,000  Level Atlanta Center
04:06PM 34.5456 -84.2306 248° West 420 483 32,000  Level Atlanta Center
04:07PM 34.5056 -84.3614 250° West 420 483 32,000  Level Atlanta Center
04:08PM 34.4675 -84.4922 251° West 420 483 32,000  Level Atlanta Center
04:09PM 34.4253 -84.6256 249° West 415 478 32,000  Level Atlanta Center
04:10PM 34.3828 -84.7536 248° West 415 478 32,000  Level Atlanta Center
04:11PM 34.3425 -84.8842 250° West 410 472 32,000  Level Atlanta Center
04:12PM 34.3017 -85.0094 248° West 404 465 32,000  Level Atlanta Center
04:13PM 34.2589 -85.1397 248° West 409 471 32,000  Level Atlanta Center
04:14PM 34.2181 -85.2672 249° West 409 471 32,000  Level Atlanta Center
04:15PM 34.1769 -85.3972 249° West 409 471 32,000  Level Atlanta Center
04:16PM 34.1358 -85.5269 249° West 415 478 32,000  Level Atlanta Center
04:17PM 34.0947 -85.6542 249° West 410 472 32,000  Level Atlanta Center
04:18PM 34.0511 -85.7814 248° West 415 478 32,000  Level Atlanta Center
04:19PM 34.0078 -85.8906 244° Southwest 405 466 32,000  Level Atlanta Center
04:20PM 33.9661 -86.0225 249° West 411 473 32,000  Level Atlanta Center
04:21PM 33.9244 -86.1517 249° West 417 480 32,000  Level Atlanta Center
04:22PM 33.8761 -86.2781 245° Southwest 417 480 32,000  Level Atlanta Center
04:23PM 33.8361 -86.4072 250° West 417 480 32,000  Level Atlanta Center
04:24PM 33.7942 -86.5308 248° West 417 480 32,000  Level Atlanta Center
04:25PM 33.7497 -86.6597 248° West 412 474 32,000  Level Atlanta Center
04:26PM 33.7072 -86.7881 248° West 412 474 32,000  Level Atlanta Center
04:27PM 33.6625 -86.9139 247° West 412 474 32,000  Level Atlanta Center
04:28PM 33.6158 -87.0422 246° West 412 474 32,000  Level Atlanta Center
04:29PM 33.5689 -87.1678 246° West 412 474 32,000  Level Atlanta Center
04:31PM 33.4900 -87.3781 246° West 420 483 32,000  Level Memphis Center
04:32PM 33.4428 -87.5067 246° West 420 483 32,000  Level Memphis Center
04:33PM 33.3956 -87.6353 246° West 420 483 32,000  Level Memphis Center
04:34PM 33.3483 -87.7633 246° West 420 483 32,000  Level Memphis Center
04:35PM 33.2986 -87.8917 245° Southwest 420 483 32,000  Level Memphis Center
04:36PM 33.2511 -88.0197 246° West 420 483 32,000  Level Memphis Center
04:37PM 33.2011 -88.1453 245° Southwest 420 483 32,000  Level Memphis Center
04:38PM 33.1553 -88.2706 246° West 420 483 32,000  Level Memphis Center
04:39PM 33.1053 -88.3931 244° Southwest 420 483 32,000  Level Memphis Center
04:40PM 33.0547 -88.5131 243° Southwest 415 478 32,000  Level Memphis Center
04:41PM 33.0022 -88.6381 243° Southwest 415 478 32,000  Level Memphis Center
04:42PM 32.9497 -88.7581 242° Southwest 415 478 32,000  Level Memphis Center
04:43PM 32.8969 -88.8803 243° Southwest 415 478 32,000  Level Memphis Center
04:44PM 32.8461 -88.9997 243° Southwest 415 478 32,000  Level Memphis Center
04:45PM 32.7931 -89.1217 243° Southwest 415 478 32,000  Level Memphis Center
04:46PM 32.7400 -89.2408 242° Southwest 415 478 32,000  Level Memphis Center
04:47PM 32.6889 -89.3625 244° Southwest 415 478 32,000  Level Memphis Center
04:48PM 32.6353 -89.4839 242° Southwest 415 478 32,000  Level Memphis Center
04:49PM 32.5819 -89.6028 242° Southwest 415 478 32,000  Level Memphis Center
04:50PM 32.5283 -89.7242 242° Southwest 415 478 32,000  Level Memphis Center
04:51PM 32.4767 -89.8425 243° Southwest 415 478 32,000  Level Memphis Center
04:52PM 32.4228 -89.9611 242° Southwest 415 478 32,000  Level Memphis Center
04:53PM 32.3711 -90.0819 243° Southwest 415 478 32,000  Level Memphis Center
04:54PM 32.3147 -90.2000 241° Southwest 415 478 32,000  Level Memphis Center
04:55PM 32.2647 -90.3181 243° Southwest 415 478 32,000  Level Memphis Center
04:56PM 32.2106 -90.4383 242° Southwest 415 478 32,000  Level Memphis Center
04:57PM 32.1561 -90.5536 241° Southwest 415 478 32,000  Level Memphis Center
04:57PM 32.1164 -90.6483 244° Southwest 408 470 32,000  Level Houston Center
04:58PM 32.0636 -90.7653 242° Southwest 407 468 32,000  Level Houston Center
04:59PM 32.0142 -90.8728 242° Southwest 409 471 32,000  Level Houston Center
05:00PM 31.9606 -90.9908 242° Southwest 408 470 32,000  Level Houston Center
05:01PM 31.8969 -91.1297 242° Southwest 405 466 32,000  Level Houston Center
05:03PM 31.8425 -91.2461 241° Southwest 406 467 32,000  Level Houston Center
05:04PM 31.7903 -91.3625 242° Southwest 404 465 32,000  Level Houston Center
05:05PM 31.7311 -91.4758 238° Southwest 406 467 32,000  Level Houston Center
05:06PM 31.6736 -91.5886 239° Southwest 404 465 32,000  Level Houston Center
05:07PM 31.6042 -91.7247 239° Southwest 406 467 32,000  Level Houston Center
05:08PM 31.5458 -91.8381 239° Southwest 407 468 32,000  Level Houston Center
05:09PM 31.4864 -91.9503 238° Southwest 405 466 32,000 -60 Level Houston Center
05:10PM 31.4272 -92.0661 239° Southwest 404 465 31,900  Descending Houston Center
05:11PM 31.3686 -92.1786 239° Southwest 405 466 32,000  Climbing Houston Center
05:12PM 31.3103 -92.2900 239° Southwest 403 464 32,000  Level Houston Center
05:13PM 31.2525 -92.4017 239° Southwest 403 464 32,000  Level Houston Center
05:14PM 31.1817 -92.5350 238° Southwest 404 465 32,000  Level Houston Center
05:15PM 31.1236 -92.6464 239° Southwest 402 463 32,000  Level Houston Center
05:16PM 31.0658 -92.7567 239° Southwest 400 460 32,000  Level Houston Center
05:17PM 31.0072 -92.8653 238° Southwest 398 458 32,000 -180 Level Houston Center
05:18PM 30.9497 -92.9753 239° Southwest 397 457 31,700 -780 Descending Houston Center
05:19PM 30.8808 -93.1011 237° Southwest 388 447 30,500 -1,020 Descending Houston Center
05:20PM 30.8225 -93.2117 238° Southwest 398 458 29,600 -960 Descending Houston Center
05:21PM 30.7647 -93.3203 238° Southwest 398 458 28,600 -1,020 Descending Houston Center
05:22PM 30.7081 -93.4267 238° Southwest 392 451 27,600 -1,020 Descending Houston Center
05:23PM 30.6511 -93.5333 238° Southwest 391 450 26,600 -1,080 Descending Houston Center
05:24PM 30.5822 -93.6600 238° Southwest 392 451 25,400 -1,560 Descending Houston Center
05:25PM 30.5258 -93.7650 238° Southwest 389 448 23,400 -1,980 Descending Houston Center
05:26PM 30.4697 -93.8689 238° Southwest 386 444 21,400 -1,980 Descending Houston Center
05:27PM 30.4139 -93.9711 238° Southwest 381 438 19,400 -2,040 Descending Houston Center
05:28PM 30.3564 -94.0747 237° Southwest 367 422 17,500 -1,800 Descending Houston Center
05:28PM 30.3592 -94.0697 57° Northeast 369 425 17,600 -1,980 Climbing Houston Center
05:29PM 30.2972 -94.1872 239° Southwest 359 413 15,200 -2,220 Descending Houston Center
05:30PM 30.2831 -94.2225 245° Southwest 329 379 14,500 -1,980 Descending Houston Center
05:30PM 30.2603 -94.2792 245° Southwest 321 369 13,200 -2,040 Descending Houston Center
05:31PM 30.2439 -94.3150 242° Southwest 309 356 12,400 -1,920 Descending Houston Center
05:32PM 30.2228 -94.3672 245° Southwest 308 354 11,200 -1,920 Descending Houston Center
05:32PM 30.2064 -94.4044 243° Southwest 291 335 10,500 -1,380 Descending Houston Center
05:33PM 30.1900 -94.4483 247° West 286 329 9,800 -1,080 Descending Houston Center
05:33PM 30.1761 -94.4811 244° Southwest 256 295 9,400 -1,020 Descending Houston Center
05:34PM 30.1575 -94.5247 244° Southwest 259 298 8,800 -1,140 Descending Houston Center
05:34PM 30.1419 -94.5606 243° Southwest 264 304 8,300 -780 Descending Houston Center
05:35PM 30.1253 -94.6017 245° Southwest 265 305 8,000 -300 Descending Houston Center
05:35PM 30.1058 -94.6447 242° Southwest 271 312 8,000  Level Houston Center
05:36PM 30.0861 -94.6961 246° West 273 314 8,000 -360 Level Houston Center
05:36PM 30.0750 -94.7164 238° Southwest 267 307 7,700 -1,020 Descending Houston Center
05:37PM 30.0542 -94.7728 247° West 268 308 7,000 -720 Descending Houston Center
05:37PM 30.0431 -94.7978 243° Southwest 267 307 7,000  Level Houston Center
05:38PM 30.0225 -94.8483 245° Southwest 262 302 7,000  Level Houston Center
05:38PM 30.0083 -94.8747 238° Southwest 264 304 7,000  Level Houston Center
05:39PM 29.9936 -94.9206 250° West 250 288 7,000 -120 Level Houston Center
05:39PM 29.9919 -94.9467 266° West 216 249 6,900 -900 Descending Houston Center
05:40PM 29.9936 -94.9875 273° West 211 243 6,100 -1,200 Descending Houston Center
05:40PM 29.9942 -95.0139 271° West 202 232 5,700 -900 Descending Houston Center
05:41PM 29.9936 -95.0494 269° West 197 227 5,200 -1,020 Descending Houston Center
05:41PM 29.9936 -95.0744 270° West 175 201 4,700 -1,440 Descending Houston Center
05:42PM 29.9942 -95.1164 271° West 177 204 3,700 -1,320 Descending Houston Center
05:42PM 29.9925 -95.1300 262° West 172 198 3,400 -900 Descending Houston Center
05:43PM 29.9939 -95.1694 272° West 170 196 2,800 -900 Descending Houston Center
05:43PM 29.9933 -95.1853 268° West 170 196 2,500 -1,020 Descending Houston Center
05:44PM 29.9939 -95.2228 271° West 168 193 1,800 -900 Descending Houston Center
05:44PM 29.9942 -95.2408 271° West 168 193 1,600 -720 Descending Houston Center
05:45PM 29.9944 -95.2733 271° West 165 190 1,100 -840 Descending Houston Center
05:45PM 29.9928 -95.2939 265° West 144 166 700 -780 Descending Houston Center
05:46PM 29.9942 -95.3183 274° West 153 176 300 -600 Descending Houston Center